ADDS TAF Board (Experimental) INFO Settings
IDs: Format: Expanded Condensed

KDFW - Dallas-Ft Worth Intl, TX, US

Issued at 1509 UTC 02 Aug 2015
Updated at: 1623 UTC 02 Aug 2015
Time1553Z 02/17Z 02/18Z 02/19Z 02/20Z 02/21Z 02/22Z 02/23Z 03/00Z 03/01Z 03/02Z 03/03Z 03/04Z 03/05Z
Type OBS PRVL PRVL PRVL PRVL PRVL PRVL PRVL PRVL PRVL PRVL PRVL PRVL PRVL
VIS 10 >6 >6 >6 >6 >6 >6 >6 >6 >6 >6 >6 >6 >6
CIG 300 110 110 110 110 110 110 110 110 110 110 110 110 110
Cover BKN BKN BKN BKN BKN BKN BKN BKN BKN BKN BKN BKN BKN BKN
FltCat VFR VFR VFR VFR VFR VFR VFR VFR VFR VFR VFR VFR VFR VFR
WX -- -- -- -- -- -- -- -- -- -- -- -- -- --
WDir 190 150 150 150 150 150 150 150 150 150 150 150 150 150
WSpd 10 7 7 7 7 7 7 7 7 7 7 7 7 7
WGst -- -- -- -- -- -- -- -- -- -- -- -- -- --
R13/31
XWnd -8 -2 -2 -2 -2 -2 -2 -2 -2 -2 -2 -2 -2 -2
HWnd 6 7 7 7 7 7 7 7 7 7 7 7 7 7
R17/35
XWnd -2 3 3 3 3 3 3 3 3 3 3 3 3 3
HWnd 10 6 6 6 6 6 6 6 6 6 6 6 6 6
R18/36
XWnd -2 3 3 3 3 3 3 3 3 3 3 3 3 3
HWnd 10 6 6 6 6 6 6 6 6 6 6 6 6 6

NOTE: TEMPO conditions in [brackets]. Keep in mind TEMPO conditions might be better (lower impact) than prevailing conditions.

Raw TAF
KDFW 021509Z 0215/0318 15007KT P6SM BKN110 BKN250

Raw METAR
KDFW 021553Z 19010KT 140V200 10SM FEW110 SCT210 BKN300 33/14 A2998 RMK AO2 SLP140 T03280139 $
KDFW 021453Z 19006KT 10SM SCT110 BKN210 BKN300 31/15 A2999 RMK AO2 SLP143 T03110150 51015
KDFW 021353Z 18007KT 10SM BKN110 BKN300 29/15 A2998 RMK AO2 SLP140 T02890150

METAR Board
Radar Display
Forecast Discussion

TAF Board Legend

Potential Impact
Threat None Slight Moderate High
Visibility (sm) ≥5.1 5.1>X≥3 3>X≥1 <1
Ceiling (100 ft) ≥30.1 30.1>X≥10 10>X≥5 <5
Wind Speed (kt) <10 10≤X<20 20≤X<30 ≥30
Wind Gust (kt) <15 15≤X<25 25≤X<35 ≥35
Weather No Wx Reported VCTS,-TS,-FZRA,SN TS,FZRA +TS,+FZRA,+SN